LiveATC.Net - Listen to live air traffic control over the Internet!


ICAO: ENGM  IATA: OSL   Airport: Oslo Gardermoen Airport
City: Oslo
Country: Norway   Continent: Europe
ENGM METAR Weather: ENGM 252220Z 34004KT 300V010 CAVOK 09/M01 Q1021
ENGM Flight Activity (FlightAware)
ENGM Webcam: (Airport Webcams)
ENGM Approach
Feed Status: UP   Listeners: 0
Listen right in your browser - requires Flash (in browser, requires Flash)
Click here to listen with your own player (launches your MP3 player)
ENGM Approach Audio Archives
FacilityFrequency
Oslo Approach118.475
Oslo Approach120.450

Feed courtesy of www.flyradio.be

NOTICE

Unauthorized use prohibited. See LiveATC.net Terms of Service


Find LiveATC Audio Streams


Airport/ARTCC Code

Frequency
(e.g., 124.400, 128.75)
Site-wide search

Browse LiveATC Feeds
LiveATC Coverage Map
Top 50 LiveATC Feeds
Bad Weather Areas

LiveATC FAQ
Offer a LiveATC Feed
Contact LiveATC.net
Press Inquiries

LiveATC on iPhone
LiveATC on Android

Windows Phone
Windows 8/10

LiveATC Mobile
(Mobile browser)

ATC Audio Archives
Interesting Recordings

LiveATC Forums


Home Page
About LiveATC.net
Make a Donation
LiveATC Store

Terms of Use
Privacy Policy

Canadian Air Freqs

AIRMETs/SIGMETs

FAA Airport Status
Nat'l Airspace Status
Arrival Demand Charts


Server Software By:
Icecast.org
Liquidsoap